sensor_id;sensor_type;location;lat;lon;timestamp;P1;durP1;ratioP1;P2;durP2;ratioP2
20104;SDS011;10212;42.714;23.310;2022-08-01T00:03:43;3.40;;;3.10;;
20104;SDS011;10212;42.714;23.310;2022-08-01T00:08:43;5.35;;;4.35;;
20104;SDS011;10212;42.714;23.310;2022-08-01T00:13:44;5.00;;;4.50;;
20104;SDS011;10212;42.714;23.310;2022-08-01T00:18:44;7.47;;;6.78;;
20104;SDS011;10212;42.714;23.310;2022-08-01T00:23:45;7.10;;;6.50;;
20104;SDS011;10212;42.714;23.310;2022-08-01T00:28:45;7.55;;;6.85;;
20104;SDS011;10212;42.714;23.310;2022-08-01T00:33:46;8.00;;;6.97;;
20104;SDS011;10212;42.714;23.310;2022-08-01T00:38:46;8.32;;;7.53;;
20104;SDS011;10212;42.714;23.310;2022-08-01T00:43:47;8.02;;;7.22;;
20104;SDS011;10212;42.714;23.310;2022-08-01T00:48:47;7.63;;;6.93;;
20104;SDS011;10212;42.714;23.310;2022-08-01T00:53:48;6.68;;;6.07;;
20104;SDS011;10212;42.714;23.310;2022-08-01T00:58:50;6.43;;;5.93;;
20104;SDS011;10212;42.714;23.310;2022-08-01T01:03:52;6.32;;;5.63;;
20104;SDS011;10212;42.714;23.310;2022-08-01T01:14:00;6.22;;;5.18;;
20104;SDS011;10212;42.714;23.310;2022-08-01T01:19:04;6.25;;;5.40;;
20104;SDS011;10212;42.714;23.310;2022-08-01T01:29:39;5.85;;;5.32;;
20104;SDS011;10212;42.714;23.310;2022-08-01T01:34:42;6.13;;;4.97;;
20104;SDS011;10212;42.714;23.310;2022-08-01T01:39:44;6.10;;;5.03;;
20104;SDS011;10212;42.714;23.310;2022-08-01T01:44:48;10.03;;;5.50;;
20104;SDS011;10212;42.714;23.310;2022-08-01T01:49:50;5.47;;;4.88;;
20104;SDS011;10212;42.714;23.310;2022-08-01T01:54:54;4.80;;;3.20;;
20104;SDS011;10212;42.714;23.310;2022-08-01T01:59:56;5.03;;;2.50;;
20104;SDS011;10212;42.714;23.310;2022-08-01T02:04:59;4.38;;;2.55;;
20104;SDS011;10212;42.714;23.310;2022-08-01T02:10:00;3.30;;;2.10;;
20104;SDS011;10212;42.714;23.310;2022-08-01T02:15:03;3.58;;;2.40;;
20104;SDS011;10212;42.714;23.310;2022-08-01T02:20:04;4.78;;;2.10;;
20104;SDS011;10212;42.714;23.310;2022-08-01T02:25:07;2.10;;;1.92;;
20104;SDS011;10212;42.714;23.310;2022-08-01T02:30:13;3.35;;;2.28;;
20104;SDS011;10212;42.714;23.310;2022-08-01T02:35:18;4.43;;;3.90;;
20104;SDS011;10212;42.714;23.310;2022-08-01T02:40:23;6.93;;;4.38;;
20104;SDS011;10212;42.714;23.310;2022-08-01T02:50:29;4.78;;;4.03;;
20104;SDS011;10212;42.714;23.310;2022-08-01T02:55:33;4.75;;;4.35;;
20104;SDS011;10212;42.714;23.310;2022-08-01T03:00:35;4.57;;;4.00;;
20104;SDS011;10212;42.714;23.310;2022-08-01T03:05:43;4.95;;;4.20;;
20104;SDS011;10212;42.714;23.310;2022-08-01T03:10:45;7.90;;;4.93;;
20104;SDS011;10212;42.714;23.310;2022-08-01T03:15:48;5.85;;;4.35;;
20104;SDS011;10212;42.714;23.310;2022-08-01T03:20:52;5.13;;;4.50;;
20104;SDS011;10212;42.714;23.310;2022-08-01T03:25:55;6.30;;;4.63;;
20104;SDS011;10212;42.714;23.310;2022-08-01T03:30:59;5.80;;;5.13;;
20104;SDS011;10212;42.714;23.310;2022-08-01T03:36:02;7.10;;;5.40;;
20104;SDS011;10212;42.714;23.310;2022-08-01T03:41:18;12.77;;;6.53;;
20104;SDS011;10212;42.714;23.310;2022-08-01T03:46:22;8.60;;;5.88;;
20104;SDS011;10212;42.714;23.310;2022-08-01T03:51:35;7.35;;;6.50;;
20104;SDS011;10212;42.714;23.310;2022-08-01T03:56:38;10.57;;;6.95;;
20104;SDS011;10212;42.714;23.310;2022-08-01T04:01:41;12.35;;;6.72;;
20104;SDS011;10212;42.714;23.310;2022-08-01T04:06:44;9.85;;;7.43;;
20104;SDS011;10212;42.714;23.310;2022-08-01T04:11:53;9.57;;;7.03;;
20104;SDS011;10212;42.714;23.310;2022-08-01T04:16:58;10.15;;;8.23;;
20104;SDS011;10212;42.714;23.310;2022-08-01T04:22:01;12.63;;;7.30;;
20104;SDS011;10212;42.714;23.310;2022-08-01T04:27:06;13.00;;;7.75;;
20104;SDS011;10212;42.714;23.310;2022-08-01T04:32:11;13.55;;;8.35;;
20104;SDS011;10212;42.714;23.310;2022-08-01T04:37:15;16.15;;;8.52;;
20104;SDS011;10212;42.714;23.310;2022-08-01T04:42:16;13.88;;;8.60;;
20104;SDS011;10212;42.714;23.310;2022-08-01T04:47:19;12.23;;;7.35;;
20104;SDS011;10212;42.714;23.310;2022-08-01T04:52:31;11.88;;;7.57;;
20104;SDS011;10212;42.714;23.310;2022-08-01T04:57:39;10.18;;;6.65;;
20104;SDS011;10212;42.714;23.310;2022-08-01T05:07:42;7.33;;;6.53;;
20104;SDS011;10212;42.714;23.310;2022-08-01T05:12:46;7.20;;;6.40;;
20104;SDS011;10212;42.714;23.310;2022-08-01T05:17:46;12.43;;;6.50;;
20104;SDS011;10212;42.714;23.310;2022-08-01T05:22:50;8.10;;;5.88;;
20104;SDS011;10212;42.714;23.310;2022-08-01T05:27:51;9.18;;;6.60;;
20104;SDS011;10212;42.714;23.310;2022-08-01T05:32:55;8.68;;;5.45;;
20104;SDS011;10212;42.714;23.310;2022-08-01T05:37:59;10.23;;;5.70;;
20104;SDS011;10212;42.714;23.310;2022-08-01T05:43:00;7.17;;;5.60;;
20104;SDS011;10212;42.714;23.310;2022-08-01T05:48:02;8.52;;;5.00;;
20104;SDS011;10212;42.714;23.310;2022-08-01T05:53:03;6.03;;;4.07;;
20104;SDS011;10212;42.714;23.310;2022-08-01T05:58:07;6.57;;;4.28;;
20104;SDS011;10212;42.714;23.310;2022-08-01T06:03:07;8.90;;;4.38;;
20104;SDS011;10212;42.714;23.310;2022-08-01T06:08:12;4.55;;;3.88;;
20104;SDS011;10212;42.714;23.310;2022-08-01T06:13:14;8.25;;;3.53;;
20104;SDS011;10212;42.714;23.310;2022-08-01T06:18:15;5.72;;;3.08;;
20104;SDS011;10212;42.714;23.310;2022-08-01T06:23:17;4.45;;;3.28;;
20104;SDS011;10212;42.714;23.310;2022-08-01T06:28:18;4.47;;;2.92;;
20104;SDS011;10212;42.714;23.310;2022-08-01T06:33:22;5.07;;;2.90;;
20104;SDS011;10212;42.714;23.310;2022-08-01T06:38:25;5.38;;;2.47;;
20104;SDS011;10212;42.714;23.310;2022-08-01T06:48:31;4.03;;;2.58;;
20104;SDS011;10212;42.714;23.310;2022-08-01T06:58:37;6.28;;;3.00;;
20104;SDS011;10212;42.714;23.310;2022-08-01T07:03:38;3.83;;;2.75;;
20104;SDS011;10212;42.714;23.310;2022-08-01T07:13:42;3.67;;;2.42;;
20104;SDS011;10212;42.714;23.310;2022-08-01T07:23:49;5.18;;;2.47;;
20104;SDS011;10212;42.714;23.310;2022-08-01T07:28:51;6.80;;;2.40;;
20104;SDS011;10212;42.714;23.310;2022-08-01T07:33:51;4.57;;;2.33;;
20104;SDS011;10212;42.714;23.310;2022-08-01T07:38:52;5.10;;;2.47;;
20104;SDS011;10212;42.714;23.310;2022-08-01T07:43:56;3.67;;;2.80;;
20104;SDS011;10212;42.714;23.310;2022-08-01T07:48:57;5.00;;;2.90;;
20104;SDS011;10212;42.714;23.310;2022-08-01T07:59:01;7.10;;;2.50;;
20104;SDS011;10212;42.714;23.310;2022-08-01T08:04:06;3.83;;;2.92;;
20104;SDS011;10212;42.714;23.310;2022-08-01T08:09:08;4.00;;;2.70;;
20104;SDS011;10212;42.714;23.310;2022-08-01T08:14:09;5.47;;;2.33;;
20104;SDS011;10212;42.714;23.310;2022-08-01T08:19:11;4.57;;;2.50;;
20104;SDS011;10212;42.714;23.310;2022-08-01T08:24:12;7.72;;;2.92;;
20104;SDS011;10212;42.714;23.310;2022-08-01T08:29:23;4.75;;;2.60;;
20104;SDS011;10212;42.714;23.310;2022-08-01T08:34:27;4.28;;;2.60;;
20104;SDS011;10212;42.714;23.310;2022-08-01T08:39:29;4.35;;;2.85;;
20104;SDS011;10212;42.714;23.310;2022-08-01T08:44:31;6.72;;;2.85;;
20104;SDS011;10212;42.714;23.310;2022-08-01T08:49:35;5.72;;;3.10;;
20104;SDS011;10212;42.714;23.310;2022-08-01T08:54:38;6.43;;;2.80;;
20104;SDS011;10212;42.714;23.310;2022-08-01T08:59:43;4.25;;;2.50;;
20104;SDS011;10212;42.714;23.310;2022-08-01T09:04:47;4.93;;;2.47;;
20104;SDS011;10212;42.714;23.310;2022-08-01T09:09:50;5.57;;;2.83;;
20104;SDS011;10212;42.714;23.310;2022-08-01T09:14:54;5.00;;;2.45;;
20104;SDS011;10212;42.714;23.310;2022-08-01T09:19:55;4.27;;;2.23;;
20104;SDS011;10212;42.714;23.310;2022-08-01T09:30:18;3.25;;;2.50;;
20104;SDS011;10212;42.714;23.310;2022-08-01T09:40:47;4.25;;;2.15;;
20104;SDS011;10212;42.714;23.310;2022-08-01T09:45:54;2.40;;;2.20;;
20104;SDS011;10212;42.714;23.310;2022-08-01T09:50:57;2.60;;;2.40;;
20104;SDS011;10212;42.714;23.310;2022-08-01T09:56:09;5.63;;;2.20;;
20104;SDS011;10212;42.714;23.310;2022-08-01T10:01:11;3.65;;;2.28;;
20104;SDS011;10212;42.714;23.310;2022-08-01T10:06:19;4.80;;;2.53;;
20104;SDS011;10212;42.714;23.310;2022-08-01T10:11:21;3.15;;;2.50;;
20104;SDS011;10212;42.714;23.310;2022-08-01T10:16:23;3.55;;;2.42;;
20104;SDS011;10212;42.714;23.310;2022-08-01T10:21:27;5.78;;;2.70;;
20104;SDS011;10212;42.714;23.310;2022-08-01T10:26:32;2.47;;;2.28;;
20104;SDS011;10212;42.714;23.310;2022-08-01T10:31:34;8.90;;;2.45;;
20104;SDS011;10212;42.714;23.310;2022-08-01T10:36:37;7.50;;;2.57;;
20104;SDS011;10212;42.714;23.310;2022-08-01T10:41:42;4.18;;;2.30;;
20104;SDS011;10212;42.714;23.310;2022-08-01T10:46:45;2.45;;;2.00;;
20104;SDS011;10212;42.714;23.310;2022-08-01T10:51:50;4.80;;;2.10;;
20104;SDS011;10212;42.714;23.310;2022-08-01T10:56:54;2.75;;;2.10;;
20104;SDS011;10212;42.714;23.310;2022-08-01T11:02:02;4.78;;;2.50;;
20104;SDS011;10212;42.714;23.310;2022-08-01T11:07:20;6.38;;;2.80;;
20104;SDS011;10212;42.714;23.310;2022-08-01T11:12:23;2.83;;;2.42;;
20104;SDS011;10212;42.714;23.310;2022-08-01T11:17:39;4.65;;;2.60;;
20104;SDS011;10212;42.714;23.310;2022-08-01T11:33:17;4.20;;;2.60;;
20104;SDS011;10212;42.714;23.310;2022-08-01T11:54:57;2.88;;;2.60;;
20104;SDS011;10212;42.714;23.310;2022-08-01T12:00:15;5.70;;;2.43;;
20104;SDS011;10212;42.714;23.310;2022-08-01T12:05:18;2.72;;;2.53;;
20104;SDS011;10212;42.714;23.310;2022-08-01T12:10:21;3.67;;;2.63;;
20104;SDS011;10212;42.714;23.310;2022-08-01T12:15:24;8.82;;;2.90;;
20104;SDS011;10212;42.714;23.310;2022-08-01T12:20:35;3.30;;;2.90;;
20104;SDS011;10212;42.714;23.310;2022-08-01T12:25:38;5.07;;;2.45;;
20104;SDS011;10212;42.714;23.310;2022-08-01T12:30:40;2.90;;;2.55;;
20104;SDS011;10212;42.714;23.310;2022-08-01T12:35:45;5.35;;;3.00;;
20104;SDS011;10212;42.714;23.310;2022-08-01T12:40:46;4.35;;;2.92;;
20104;SDS011;10212;42.714;23.310;2022-08-01T12:45:48;2.90;;;2.60;;
20104;SDS011;10212;42.714;23.310;2022-08-01T12:50:51;3.37;;;2.53;;
20104;SDS011;10212;42.714;23.310;2022-08-01T12:55:56;2.85;;;2.53;;
20104;SDS011;10212;42.714;23.310;2022-08-01T13:01:06;3.90;;;2.63;;
20104;SDS011;10212;42.714;23.310;2022-08-01T13:06:11;2.67;;;2.42;;
20104;SDS011;10212;42.714;23.310;2022-08-01T13:11:15;4.50;;;2.20;;
20104;SDS011;10212;42.714;23.310;2022-08-01T13:16:21;8.10;;;2.53;;
20104;SDS011;10212;42.714;23.310;2022-08-01T13:21:27;2.38;;;2.17;;
20104;SDS011;10212;42.714;23.310;2022-08-01T13:31:42;3.72;;;2.42;;
20104;SDS011;10212;42.714;23.310;2022-08-01T13:36:43;4.68;;;2.08;;
20104;SDS011;10212;42.714;23.310;2022-08-01T13:41:48;2.95;;;2.30;;
20104;SDS011;10212;42.714;23.310;2022-08-01T13:46:51;4.75;;;2.03;;
20104;SDS011;10212;42.714;23.310;2022-08-01T13:51:52;5.30;;;2.50;;
20104;SDS011;10212;42.714;23.310;2022-08-01T13:56:52;2.63;;;2.30;;
20104;SDS011;10212;42.714;23.310;2022-08-01T14:01:57;3.15;;;2.30;;
20104;SDS011;10212;42.714;23.310;2022-08-01T14:06:57;4.25;;;2.25;;
20104;SDS011;10212;42.714;23.310;2022-08-01T14:12:01;3.08;;;2.10;;
20104;SDS011;10212;42.714;23.310;2022-08-01T14:17:04;2.30;;;1.90;;
20104;SDS011;10212;42.714;23.310;2022-08-01T14:22:05;2.42;;;2.15;;
20104;SDS011;10212;42.714;23.310;2022-08-01T14:27:07;2.37;;;2.17;;
20104;SDS011;10212;42.714;23.310;2022-08-01T14:32:08;2.35;;;2.03;;
20104;SDS011;10212;42.714;23.310;2022-08-01T14:37:08;2.13;;;1.93;;
20104;SDS011;10212;42.714;23.310;2022-08-01T14:42:09;3.47;;;2.27;;
20104;SDS011;10212;42.714;23.310;2022-08-01T14:47:13;2.10;;;1.90;;
20104;SDS011;10212;42.714;23.310;2022-08-01T14:52:14;3.55;;;2.10;;
20104;SDS011;10212;42.714;23.310;2022-08-01T14:57:16;2.10;;;2.00;;
20104;SDS011;10212;42.714;23.310;2022-08-01T15:02:21;3.80;;;2.00;;
20104;SDS011;10212;42.714;23.310;2022-08-01T15:07:22;2.20;;;1.88;;
20104;SDS011;10212;42.714;23.310;2022-08-01T15:12:22;2.03;;;1.92;;
20104;SDS011;10212;42.714;23.310;2022-08-01T15:17:28;3.25;;;2.08;;
20104;SDS011;10212;42.714;23.310;2022-08-01T15:22:32;4.55;;;1.90;;
20104;SDS011;10212;42.714;23.310;2022-08-01T15:27:34;3.00;;;1.93;;
20104;SDS011;10212;42.714;23.310;2022-08-01T15:32:35;2.15;;;1.70;;
20104;SDS011;10212;42.714;23.310;2022-08-01T15:37:38;5.70;;;1.90;;
20104;SDS011;10212;42.714;23.310;2022-08-01T15:42:42;4.65;;;1.73;;
20104;SDS011;10212;42.714;23.310;2022-08-01T15:47:45;2.20;;;1.80;;
20104;SDS011;10212;42.714;23.310;2022-08-01T15:52:49;2.92;;;1.90;;
20104;SDS011;10212;42.714;23.310;2022-08-01T15:57:50;4.68;;;1.77;;
20104;SDS011;10212;42.714;23.310;2022-08-01T16:02:52;1.70;;;1.50;;
20104;SDS011;10212;42.714;23.310;2022-08-01T16:07:53;1.70;;;1.60;;
20104;SDS011;10212;42.714;23.310;2022-08-01T16:12:56;2.25;;;1.67;;
20104;SDS011;10212;42.714;23.310;2022-08-01T16:17:56;2.25;;;1.73;;
20104;SDS011;10212;42.714;23.310;2022-08-01T16:23:00;2.80;;;1.90;;
20104;SDS011;10212;42.714;23.310;2022-08-01T16:28:01;5.53;;;2.58;;
20104;SDS011;10212;42.714;23.310;2022-08-01T16:33:05;3.63;;;1.50;;
20104;SDS011;10212;42.714;23.310;2022-08-01T16:38:06;2.50;;;1.50;;
20104;SDS011;10212;42.714;23.310;2022-08-01T16:43:10;1.92;;;1.50;;
20104;SDS011;10212;42.714;23.310;2022-08-01T16:48:11;2.72;;;1.60;;
20104;SDS011;10212;42.714;23.310;2022-08-01T16:53:18;2.67;;;1.80;;
20104;SDS011;10212;42.714;23.310;2022-08-01T16:58:20;1.40;;;1.30;;
20104;SDS011;10212;42.714;23.310;2022-08-01T17:03:21;2.50;;;1.30;;
20104;SDS011;10212;42.714;23.310;2022-08-01T17:08:24;1.57;;;1.43;;
20104;SDS011;10212;42.714;23.310;2022-08-01T17:13:25;3.20;;;1.60;;
20104;SDS011;10212;42.714;23.310;2022-08-01T17:18:28;1.85;;;1.73;;
20104;SDS011;10212;42.714;23.310;2022-08-01T17:23:30;2.55;;;1.42;;
20104;SDS011;10212;42.714;23.310;2022-08-01T17:28:32;3.05;;;1.60;;
20104;SDS011;10212;42.714;23.310;2022-08-01T17:33:35;2.65;;;1.60;;
20104;SDS011;10212;42.714;23.310;2022-08-01T17:38:40;2.72;;;2.20;;
20104;SDS011;10212;42.714;23.310;2022-08-01T17:43:42;3.05;;;1.60;;
20104;SDS011;10212;42.714;23.310;2022-08-01T17:48:45;1.80;;;1.50;;
20104;SDS011;10212;42.714;23.310;2022-08-01T17:53:48;2.38;;;1.60;;
20104;SDS011;10212;42.714;23.310;2022-08-01T17:58:49;2.22;;;1.75;;
20104;SDS011;10212;42.714;23.310;2022-08-01T18:03:54;4.35;;;2.50;;
20104;SDS011;10212;42.714;23.310;2022-08-01T18:08:58;2.22;;;1.70;;
20104;SDS011;10212;42.714;23.310;2022-08-01T18:14:02;2.83;;;2.20;;
20104;SDS011;10212;42.714;23.310;2022-08-01T18:19:03;5.63;;;1.90;;
20104;SDS011;10212;42.714;23.310;2022-08-01T18:24:06;3.40;;;2.00;;
20104;SDS011;10212;42.714;23.310;2022-08-01T18:29:08;4.88;;;1.80;;
20104;SDS011;10212;42.714;23.310;2022-08-01T18:34:11;2.90;;;1.75;;
20104;SDS011;10212;42.714;23.310;2022-08-01T18:39:15;3.78;;;2.88;;
20104;SDS011;10212;42.714;23.310;2022-08-01T18:44:16;4.60;;;1.98;;
20104;SDS011;10212;42.714;23.310;2022-08-01T18:49:18;4.00;;;2.00;;
20104;SDS011;10212;42.714;23.310;2022-08-01T18:54:19;2.80;;;2.10;;
20104;SDS011;10212;42.714;23.310;2022-08-01T18:59:24;3.80;;;2.10;;
20104;SDS011;10212;42.714;23.310;2022-08-01T19:04:28;2.92;;;2.40;;
20104;SDS011;10212;42.714;23.310;2022-08-01T19:09:29;2.92;;;2.47;;
20104;SDS011;10212;42.714;23.310;2022-08-01T19:14:33;4.03;;;2.22;;
20104;SDS011;10212;42.714;23.310;2022-08-01T19:19:34;2.67;;;2.20;;
20104;SDS011;10212;42.714;23.310;2022-08-01T19:24:35;4.53;;;2.33;;
20104;SDS011;10212;42.714;23.310;2022-08-01T19:29:42;5.82;;;3.22;;
20104;SDS011;10212;42.714;23.310;2022-08-01T19:34:53;3.80;;;2.75;;
20104;SDS011;10212;42.714;23.310;2022-08-01T19:40:06;4.45;;;3.42;;
20104;SDS011;10212;42.714;23.310;2022-08-01T19:45:09;5.38;;;2.58;;
20104;SDS011;10212;42.714;23.310;2022-08-01T19:50:11;4.72;;;4.03;;
20104;SDS011;10212;42.714;23.310;2022-08-01T19:55:12;3.55;;;2.55;;
20104;SDS011;10212;42.714;23.310;2022-08-01T20:00:15;3.95;;;2.97;;
20104;SDS011;10212;42.714;23.310;2022-08-01T20:05:16;4.65;;;3.30;;
20104;SDS011;10212;42.714;23.310;2022-08-01T20:10:20;4.72;;;3.08;;
20104;SDS011;10212;42.714;23.310;2022-08-01T20:15:22;3.85;;;2.50;;
20104;SDS011;10212;42.714;23.310;2022-08-01T20:20:24;4.28;;;2.40;;
20104;SDS011;10212;42.714;23.310;2022-08-01T20:25:29;3.70;;;3.05;;
20104;SDS011;10212;42.714;23.310;2022-08-01T20:30:33;3.85;;;2.28;;
20104;SDS011;10212;42.714;23.310;2022-08-01T20:35:37;3.70;;;2.55;;
20104;SDS011;10212;42.714;23.310;2022-08-01T20:40:39;3.58;;;2.13;;
20104;SDS011;10212;42.714;23.310;2022-08-01T20:45:42;3.35;;;2.05;;
20104;SDS011;10212;42.714;23.310;2022-08-01T20:50:46;2.47;;;2.00;;
20104;SDS011;10212;42.714;23.310;2022-08-01T21:01:22;2.40;;;1.88;;
20104;SDS011;10212;42.714;23.310;2022-08-01T21:06:28;2.85;;;1.98;;
20104;SDS011;10212;42.714;23.310;2022-08-01T21:11:39;2.58;;;2.10;;
20104;SDS011;10212;42.714;23.310;2022-08-01T21:16:56;4.63;;;2.00;;
20104;SDS011;10212;42.714;23.310;2022-08-01T21:22:14;4.53;;;2.13;;
20104;SDS011;10212;42.714;23.310;2022-08-01T21:27:27;2.92;;;2.15;;
20104;SDS011;10212;42.714;23.310;2022-08-01T21:32:33;4.47;;;2.20;;
20104;SDS011;10212;42.714;23.310;2022-08-01T21:37:35;3.42;;;2.13;;
20104;SDS011;10212;42.714;23.310;2022-08-01T21:42:38;4.30;;;2.67;;
20104;SDS011;10212;42.714;23.310;2022-08-01T21:47:45;3.47;;;2.10;;
20104;SDS011;10212;42.714;23.310;2022-08-01T21:52:52;2.55;;;2.13;;
20104;SDS011;10212;42.714;23.310;2022-08-01T22:08:37;5.28;;;2.53;;
20104;SDS011;10212;42.714;23.310;2022-08-01T22:13:43;6.80;;;2.75;;
20104;SDS011;10212;42.714;23.310;2022-08-01T22:18:48;3.67;;;2.63;;
20104;SDS011;10212;42.714;23.310;2022-08-01T22:23:51;2.80;;;2.33;;
20104;SDS011;10212;42.714;23.310;2022-08-01T22:28:53;1.98;;;1.85;;
20104;SDS011;10212;42.714;23.310;2022-08-01T22:33:56;4.93;;;2.20;;
20104;SDS011;10212;42.714;23.310;2022-08-01T22:39:00;2.97;;;1.90;;
20104;SDS011;10212;42.714;23.310;2022-08-01T22:44:08;3.53;;;1.70;;
20104;SDS011;10212;42.714;23.310;2022-08-01T22:54:50;2.35;;;1.67;;
20104;SDS011;10212;42.714;23.310;2022-08-01T23:00:01;2.15;;;1.90;;
20104;SDS011;10212;42.714;23.310;2022-08-01T23:05:07;1.75;;;1.65;;
20104;SDS011;10212;42.714;23.310;2022-08-01T23:10:11;3.28;;;1.73;;
20104;SDS011;10212;42.714;23.310;2022-08-01T23:15:14;2.95;;;1.63;;
20104;SDS011;10212;42.714;23.310;2022-08-01T23:20:16;1.80;;;1.70;;
20104;SDS011;10212;42.714;23.310;2022-08-01T23:25:18;2.03;;;1.63;;
20104;SDS011;10212;42.714;23.310;2022-08-01T23:30:18;1.98;;;1.88;;
20104;SDS011;10212;42.714;23.310;2022-08-01T23:35:23;2.60;;;1.80;;
20104;SDS011;10212;42.714;23.310;2022-08-01T23:40:24;1.80;;;1.70;;
20104;SDS011;10212;42.714;23.310;2022-08-01T23:50:29;2.75;;;1.70;;
20104;SDS011;10212;42.714;23.310;2022-08-01T23:55:33;1.85;;;1.73;;
